sensor_id;sensor_type;location;lat;lon;timestamp;P1;durP1;ratioP1;P2;durP2;ratioP2
43996;SDS011;34318;45.818;15.964;2023-06-14T00:01:03;3.38;;;3.08;;
43996;SDS011;34318;45.818;15.964;2023-06-14T00:03:32;3.72;;;3.08;;
43996;SDS011;34318;45.818;15.964;2023-06-14T00:05:59;3.65;;;3.35;;
43996;SDS011;34318;45.818;15.964;2023-06-14T00:08:27;4.60;;;3.15;;
43996;SDS011;34318;45.818;15.964;2023-06-14T00:10:54;3.75;;;3.35;;
43996;SDS011;34318;45.818;15.964;2023-06-14T00:13:21;4.25;;;3.10;;
43996;SDS011;34318;45.818;15.964;2023-06-14T00:15:49;3.60;;;3.30;;
43996;SDS011;34318;45.818;15.964;2023-06-14T00:18:21;5.03;;;3.25;;
43996;SDS011;34318;45.818;15.964;2023-06-14T00:20:55;3.45;;;3.10;;
43996;SDS011;34318;45.818;15.964;2023-06-14T00:23:23;3.83;;;3.33;;
43996;SDS011;34318;45.818;15.964;2023-06-14T00:25:50;3.30;;;3.00;;
43996;SDS011;34318;45.818;15.964;2023-06-14T00:28:17;4.25;;;3.50;;
43996;SDS011;34318;45.818;15.964;2023-06-14T00:30:45;3.58;;;2.90;;
43996;SDS011;34318;45.818;15.964;2023-06-14T00:33:12;4.60;;;2.85;;
43996;SDS011;34318;45.818;15.964;2023-06-14T00:35:40;4.20;;;2.95;;
43996;SDS011;34318;45.818;15.964;2023-06-14T00:38:10;3.33;;;3.03;;
43996;SDS011;34318;45.818;15.964;2023-06-14T00:40:37;4.00;;;3.33;;
43996;SDS011;34318;45.818;15.964;2023-06-14T00:43:05;6.43;;;3.20;;
43996;SDS011;34318;45.818;15.964;2023-06-14T00:45:32;6.72;;;3.17;;
43996;SDS011;34318;45.818;15.964;2023-06-14T00:48:02;3.50;;;3.17;;
43996;SDS011;34318;45.818;15.964;2023-06-14T00:50:32;3.75;;;3.38;;
43996;SDS011;34318;45.818;15.964;2023-06-14T00:53:00;3.13;;;2.85;;
43996;SDS011;34318;45.818;15.964;2023-06-14T00:55:27;3.10;;;2.80;;
43996;SDS011;34318;45.818;15.964;2023-06-14T00:57:55;5.40;;;3.53;;
43996;SDS011;34318;45.818;15.964;2023-06-14T01:00:22;4.00;;;3.38;;
43996;SDS011;34318;45.818;15.964;2023-06-14T01:02:49;3.33;;;3.08;;
43996;SDS011;34318;45.818;15.964;2023-06-14T01:05:17;3.75;;;3.00;;
43996;SDS011;34318;45.818;15.964;2023-06-14T01:07:55;3.90;;;3.00;;
43996;SDS011;34318;45.818;15.964;2023-06-14T01:10:33;3.28;;;2.97;;
43996;SDS011;34318;45.818;15.964;2023-06-14T01:15:48;4.47;;;3.03;;
43996;SDS011;34318;45.818;15.964;2023-06-14T01:18:17;4.32;;;2.92;;
43996;SDS011;34318;45.818;15.964;2023-06-14T01:20:45;3.42;;;2.75;;
43996;SDS011;34318;45.818;15.964;2023-06-14T01:23:16;3.75;;;3.35;;
43996;SDS011;34318;45.818;15.964;2023-06-14T01:25:44;3.55;;;2.72;;
43996;SDS011;34318;45.818;15.964;2023-06-14T01:28:13;3.10;;;2.80;;
43996;SDS011;34318;45.818;15.964;2023-06-14T01:30:43;3.13;;;2.83;;
43996;SDS011;34318;45.818;15.964;2023-06-14T01:33:15;3.10;;;2.90;;
43996;SDS011;34318;45.818;15.964;2023-06-14T01:35:50;3.47;;;3.17;;
43996;SDS011;34318;45.818;15.964;2023-06-14T01:38:18;3.03;;;2.67;;
43996;SDS011;34318;45.818;15.964;2023-06-14T01:40:46;4.05;;;2.90;;
43996;SDS011;34318;45.818;15.964;2023-06-14T01:43:15;3.75;;;3.40;;
43996;SDS011;34318;45.818;15.964;2023-06-14T01:45:42;3.70;;;3.08;;
43996;SDS011;34318;45.818;15.964;2023-06-14T01:48:11;3.63;;;2.92;;
43996;SDS011;34318;45.818;15.964;2023-06-14T01:50:39;3.33;;;2.60;;
43996;SDS011;34318;45.818;15.964;2023-06-14T01:53:07;3.30;;;3.00;;
43996;SDS011;34318;45.818;15.964;2023-06-14T01:55:34;4.88;;;3.38;;
43996;SDS011;34318;45.818;15.964;2023-06-14T01:58:04;3.70;;;2.65;;
43996;SDS011;34318;45.818;15.964;2023-06-14T02:00:31;3.53;;;2.70;;
43996;SDS011;34318;45.818;15.964;2023-06-14T02:02:59;3.42;;;2.85;;
43996;SDS011;34318;45.818;15.964;2023-06-14T02:05:26;4.57;;;3.13;;
43996;SDS011;34318;45.818;15.964;2023-06-14T02:07:54;3.47;;;3.17;;
43996;SDS011;34318;45.818;15.964;2023-06-14T02:10:21;3.10;;;2.80;;
43996;SDS011;34318;45.818;15.964;2023-06-14T02:12:48;3.75;;;2.97;;
43996;SDS011;34318;45.818;15.964;2023-06-14T02:15:16;3.97;;;3.10;;
43996;SDS011;34318;45.818;15.964;2023-06-14T02:17:44;4.80;;;2.80;;
43996;SDS011;34318;45.818;15.964;2023-06-14T02:20:13;3.25;;;2.95;;
43996;SDS011;34318;45.818;15.964;2023-06-14T02:22:41;2.95;;;2.67;;
43996;SDS011;34318;45.818;15.964;2023-06-14T02:25:08;4.10;;;2.50;;
43996;SDS011;34318;45.818;15.964;2023-06-14T02:27:36;3.28;;;2.97;;
43996;SDS011;34318;45.818;15.964;2023-06-14T02:30:03;3.22;;;2.85;;
43996;SDS011;34318;45.818;15.964;2023-06-14T02:32:31;4.35;;;3.03;;
43996;SDS011;34318;45.818;15.964;2023-06-14T02:35:00;4.32;;;2.67;;
43996;SDS011;34318;45.818;15.964;2023-06-14T02:37:28;3.60;;;3.17;;
43996;SDS011;34318;45.818;15.964;2023-06-14T02:39:56;3.63;;;3.33;;
43996;SDS011;34318;45.818;15.964;2023-06-14T02:42:23;3.00;;;2.70;;
43996;SDS011;34318;45.818;15.964;2023-06-14T02:44:50;4.53;;;3.10;;
43996;SDS011;34318;45.818;15.964;2023-06-14T02:47:18;5.20;;;2.78;;
43996;SDS011;34318;45.818;15.964;2023-06-14T02:49:45;3.05;;;2.80;;
43996;SDS011;34318;45.818;15.964;2023-06-14T02:52:12;6.05;;;3.10;;
43996;SDS011;34318;45.818;15.964;2023-06-14T02:54:40;3.55;;;2.78;;
43996;SDS011;34318;45.818;15.964;2023-06-14T02:57:07;3.05;;;2.60;;
43996;SDS011;34318;45.818;15.964;2023-06-14T02:59:35;3.13;;;2.83;;
43996;SDS011;34318;45.818;15.964;2023-06-14T03:02:02;2.75;;;2.55;;
43996;SDS011;34318;45.818;15.964;2023-06-14T03:04:29;3.20;;;2.90;;
43996;SDS011;34318;45.818;15.964;2023-06-14T03:07:01;3.28;;;2.97;;
43996;SDS011;34318;45.818;15.964;2023-06-14T03:09:29;3.50;;;2.67;;
43996;SDS011;34318;45.818;15.964;2023-06-14T03:11:56;3.13;;;2.83;;
43996;SDS011;34318;45.818;15.964;2023-06-14T03:14:23;6.13;;;2.47;;
43996;SDS011;34318;45.818;15.964;2023-06-14T03:16:50;2.97;;;2.78;;
43996;SDS011;34318;45.818;15.964;2023-06-14T03:19:23;3.53;;;3.22;;
43996;SDS011;34318;45.818;15.964;2023-06-14T03:21:50;2.83;;;2.58;;
43996;SDS011;34318;45.818;15.964;2023-06-14T03:24:17;2.95;;;2.72;;
43996;SDS011;34318;45.818;15.964;2023-06-14T03:26:45;4.07;;;2.90;;
43996;SDS011;34318;45.818;15.964;2023-06-14T03:29:13;3.08;;;2.65;;
43996;SDS011;34318;45.818;15.964;2023-06-14T03:31:56;2.90;;;2.70;;
43996;SDS011;34318;45.818;15.964;2023-06-14T03:34:24;2.83;;;2.63;;
43996;SDS011;34318;45.818;15.964;2023-06-14T03:36:51;3.22;;;2.38;;
43996;SDS011;34318;45.818;15.964;2023-06-14T03:39:19;3.97;;;2.70;;
43996;SDS011;34318;45.818;15.964;2023-06-14T03:41:46;2.53;;;2.33;;
43996;SDS011;34318;45.818;15.964;2023-06-14T03:44:15;2.58;;;2.38;;
43996;SDS011;34318;45.818;15.964;2023-06-14T03:46:43;3.08;;;2.53;;
43996;SDS011;34318;45.818;15.964;2023-06-14T03:49:11;3.60;;;2.65;;
43996;SDS011;34318;45.818;15.964;2023-06-14T03:51:39;3.95;;;2.72;;
43996;SDS011;34318;45.818;15.964;2023-06-14T03:54:06;2.92;;;2.70;;
43996;SDS011;34318;45.818;15.964;2023-06-14T03:56:37;4.10;;;2.80;;
43996;SDS011;34318;45.818;15.964;2023-06-14T03:59:04;2.83;;;2.63;;
43996;SDS011;34318;45.818;15.964;2023-06-14T04:01:31;3.42;;;2.78;;
43996;SDS011;34318;45.818;15.964;2023-06-14T04:04:00;3.17;;;2.88;;
43996;SDS011;34318;45.818;15.964;2023-06-14T04:06:27;3.00;;;2.63;;
43996;SDS011;34318;45.818;15.964;2023-06-14T04:08:59;4.13;;;2.30;;
43996;SDS011;34318;45.818;15.964;2023-06-14T04:11:30;2.70;;;2.50;;
43996;SDS011;34318;45.818;15.964;2023-06-14T04:13:58;4.07;;;2.85;;
43996;SDS011;34318;45.818;15.964;2023-06-14T04:16:26;4.53;;;2.85;;
43996;SDS011;34318;45.818;15.964;2023-06-14T04:18:54;3.00;;;2.65;;
43996;SDS011;34318;45.818;15.964;2023-06-14T04:21:21;3.17;;;2.92;;
43996;SDS011;34318;45.818;15.964;2023-06-14T04:23:49;2.88;;;2.67;;
43996;SDS011;34318;45.818;15.964;2023-06-14T04:26:19;3.40;;;2.90;;
43996;SDS011;34318;45.818;15.964;2023-06-14T04:28:48;3.42;;;3.13;;
43996;SDS011;34318;45.818;15.964;2023-06-14T04:31:17;4.30;;;3.10;;
43996;SDS011;34318;45.818;15.964;2023-06-14T04:33:44;3.20;;;2.45;;
43996;SDS011;34318;45.818;15.964;2023-06-14T04:36:13;3.00;;;2.33;;
43996;SDS011;34318;45.818;15.964;2023-06-14T04:38:44;2.47;;;2.28;;
43996;SDS011;34318;45.818;15.964;2023-06-14T04:41:12;5.00;;;2.65;;
43996;SDS011;34318;45.818;15.964;2023-06-14T04:43:39;3.05;;;2.70;;
43996;SDS011;34318;45.818;15.964;2023-06-14T04:46:06;3.60;;;2.60;;
43996;SDS011;34318;45.818;15.964;2023-06-14T04:48:38;2.88;;;2.65;;
43996;SDS011;34318;45.818;15.964;2023-06-14T04:51:07;3.08;;;2.83;;
43996;SDS011;34318;45.818;15.964;2023-06-14T04:53:35;4.78;;;3.15;;
43996;SDS011;34318;45.818;15.964;2023-06-14T04:56:03;3.67;;;3.38;;
43996;SDS011;34318;45.818;15.964;2023-06-14T04:58:30;4.32;;;3.25;;
43996;SDS011;34318;45.818;15.964;2023-06-14T05:00:58;4.05;;;3.22;;
43996;SDS011;34318;45.818;15.964;2023-06-14T05:03:25;3.47;;;3.05;;
43996;SDS011;34318;45.818;15.964;2023-06-14T05:05:54;3.60;;;3.30;;
43996;SDS011;34318;45.818;15.964;2023-06-14T05:08:21;4.68;;;2.88;;
43996;SDS011;34318;45.818;15.964;2023-06-14T05:10:50;3.47;;;2.95;;
43996;SDS011;34318;45.818;15.964;2023-06-14T05:13:17;5.72;;;4.13;;
43996;SDS011;34318;45.818;15.964;2023-06-14T05:15:44;5.57;;;4.65;;
43996;SDS011;34318;45.818;15.964;2023-06-14T05:18:12;5.57;;;5.07;;
43996;SDS011;34318;45.818;15.964;2023-06-14T05:20:40;9.27;;;5.38;;
43996;SDS011;34318;45.818;15.964;2023-06-14T05:23:08;5.57;;;4.47;;
43996;SDS011;34318;45.818;15.964;2023-06-14T05:25:45;5.00;;;4.50;;
43996;SDS011;34318;45.818;15.964;2023-06-14T05:28:12;6.65;;;4.32;;
43996;SDS011;34318;45.818;15.964;2023-06-14T05:30:40;4.63;;;3.95;;
43996;SDS011;34318;45.818;15.964;2023-06-14T05:33:07;6.30;;;5.15;;
43996;SDS011;34318;45.818;15.964;2023-06-14T05:35:34;8.18;;;7.43;;
43996;SDS011;34318;45.818;15.964;2023-06-14T05:38:02;8.90;;;8.07;;
43996;SDS011;34318;45.818;15.964;2023-06-14T05:40:34;14.20;;;10.18;;
43996;SDS011;34318;45.818;15.964;2023-06-14T05:43:01;11.63;;;10.45;;
43996;SDS011;34318;45.818;15.964;2023-06-14T05:45:28;11.73;;;10.55;;
43996;SDS011;34318;45.818;15.964;2023-06-14T05:47:56;13.57;;;11.20;;
43996;SDS011;34318;45.818;15.964;2023-06-14T05:50:23;11.40;;;10.40;;
43996;SDS011;34318;45.818;15.964;2023-06-14T05:52:50;14.10;;;12.70;;
43996;SDS011;34318;45.818;15.964;2023-06-14T05:55:17;13.52;;;12.27;;
43996;SDS011;34318;45.818;15.964;2023-06-14T05:57:45;14.13;;;12.63;;
43996;SDS011;34318;45.818;15.964;2023-06-14T06:00:13;14.77;;;13.18;;
43996;SDS011;34318;45.818;15.964;2023-06-14T06:02:42;15.88;;;13.27;;
43996;SDS011;34318;45.818;15.964;2023-06-14T06:05:10;15.52;;;13.85;;
43996;SDS011;34318;45.818;15.964;2023-06-14T06:07:37;14.75;;;13.32;;
43996;SDS011;34318;45.818;15.964;2023-06-14T06:10:06;14.80;;;13.32;;
43996;SDS011;34318;45.818;15.964;2023-06-14T06:12:33;12.70;;;10.73;;
43996;SDS011;34318;45.818;15.964;2023-06-14T06:15:01;11.13;;;8.73;;
43996;SDS011;34318;45.818;15.964;2023-06-14T06:17:29;9.20;;;8.32;;
43996;SDS011;34318;45.818;15.964;2023-06-14T06:20:16;9.82;;;8.25;;
43996;SDS011;34318;45.818;15.964;2023-06-14T06:22:43;7.65;;;6.85;;
43996;SDS011;34318;45.818;15.964;2023-06-14T06:25:10;6.88;;;6.18;;
43996;SDS011;34318;45.818;15.964;2023-06-14T06:27:38;7.53;;;6.82;;
43996;SDS011;34318;45.818;15.964;2023-06-14T06:30:06;7.00;;;6.30;;
43996;SDS011;34318;45.818;15.964;2023-06-14T06:32:34;7.00;;;6.40;;
43996;SDS011;34318;45.818;15.964;2023-06-14T06:35:01;7.75;;;6.40;;
43996;SDS011;34318;45.818;15.964;2023-06-14T06:37:29;6.97;;;6.25;;
43996;SDS011;34318;45.818;15.964;2023-06-14T06:39:56;6.90;;;6.30;;
43996;SDS011;34318;45.818;15.964;2023-06-14T06:42:23;6.85;;;6.20;;
43996;SDS011;34318;45.818;15.964;2023-06-14T06:44:51;8.82;;;7.88;;
43996;SDS011;34318;45.818;15.964;2023-06-14T06:47:18;8.82;;;7.60;;
43996;SDS011;34318;45.818;15.964;2023-06-14T06:49:45;6.68;;;5.97;;
43996;SDS011;34318;45.818;15.964;2023-06-14T06:52:13;5.85;;;5.25;;
43996;SDS011;34318;45.818;15.964;2023-06-14T06:54:40;6.10;;;5.18;;
43996;SDS011;34318;45.818;15.964;2023-06-14T06:57:07;6.10;;;5.60;;
43996;SDS011;34318;45.818;15.964;2023-06-14T06:59:35;6.60;;;6.00;;
43996;SDS011;34318;45.818;15.964;2023-06-14T07:02:02;6.60;;;6.00;;
43996;SDS011;34318;45.818;15.964;2023-06-14T07:04:30;7.07;;;6.07;;
43996;SDS011;34318;45.818;15.964;2023-06-14T07:06:57;7.70;;;7.00;;
43996;SDS011;34318;45.818;15.964;2023-06-14T07:09:24;6.55;;;5.85;;
43996;SDS011;34318;45.818;15.964;2023-06-14T07:11:54;6.47;;;5.70;;
43996;SDS011;34318;45.818;15.964;2023-06-14T07:14:21;6.45;;;5.90;;
43996;SDS011;34318;45.818;15.964;2023-06-14T07:16:49;5.97;;;5.45;;
43996;SDS011;34318;45.818;15.964;2023-06-14T07:19:16;7.78;;;5.80;;
43996;SDS011;34318;45.818;15.964;2023-06-14T07:21:44;6.35;;;5.75;;
43996;SDS011;34318;45.818;15.964;2023-06-14T07:24:11;5.75;;;5.25;;
43996;SDS011;34318;45.818;15.964;2023-06-14T07:26:38;6.78;;;4.53;;
43996;SDS011;34318;45.818;15.964;2023-06-14T07:29:05;16.75;;;5.20;;
43996;SDS011;34318;45.818;15.964;2023-06-14T07:31:33;7.93;;;4.95;;
43996;SDS011;34318;45.818;15.964;2023-06-14T07:34:00;7.80;;;5.05;;
43996;SDS011;34318;45.818;15.964;2023-06-14T07:36:27;8.80;;;4.80;;
43996;SDS011;34318;45.818;15.964;2023-06-14T07:38:58;4.90;;;4.40;;
43996;SDS011;34318;45.818;15.964;2023-06-14T07:41:25;5.32;;;4.53;;
43996;SDS011;34318;45.818;15.964;2023-06-14T07:43:53;5.07;;;4.60;;
43996;SDS011;34318;45.818;15.964;2023-06-14T07:46:20;8.35;;;4.78;;
43996;SDS011;34318;45.818;15.964;2023-06-14T07:48:47;4.63;;;4.22;;
43996;SDS011;34318;45.818;15.964;2023-06-14T07:51:15;4.63;;;4.05;;
43996;SDS011;34318;45.818;15.964;2023-06-14T07:53:42;6.85;;;4.80;;
43996;SDS011;34318;45.818;15.964;2023-06-14T07:56:09;12.02;;;4.65;;
43996;SDS011;34318;45.818;15.964;2023-06-14T07:58:36;6.38;;;4.40;;
43996;SDS011;34318;45.818;15.964;2023-06-14T08:01:04;5.80;;;4.95;;
43996;SDS011;34318;45.818;15.964;2023-06-14T08:03:34;5.43;;;4.30;;
43996;SDS011;34318;45.818;15.964;2023-06-14T08:06:01;4.85;;;4.22;;
43996;SDS011;34318;45.818;15.964;2023-06-14T08:08:29;5.55;;;4.22;;
43996;SDS011;34318;45.818;15.964;2023-06-14T08:10:56;3.88;;;3.55;;
43996;SDS011;34318;45.818;15.964;2023-06-14T08:13:24;4.82;;;4.35;;
43996;SDS011;34318;45.818;15.964;2023-06-14T08:15:51;6.40;;;4.63;;
43996;SDS011;34318;45.818;15.964;2023-06-14T08:18:18;4.82;;;4.38;;
43996;SDS011;34318;45.818;15.964;2023-06-14T08:20:45;5.72;;;4.40;;
43996;SDS011;34318;45.818;15.964;2023-06-14T08:23:13;3.85;;;3.55;;
43996;SDS011;34318;45.818;15.964;2023-06-14T08:25:40;4.80;;;4.38;;
43996;SDS011;34318;45.818;15.964;2023-06-14T08:28:07;5.80;;;4.07;;
43996;SDS011;34318;45.818;15.964;2023-06-14T08:30:34;5.30;;;4.10;;
43996;SDS011;34318;45.818;15.964;2023-06-14T08:33:02;7.65;;;4.43;;
43996;SDS011;34318;45.818;15.964;2023-06-14T08:35:42;5.65;;;4.03;;
43996;SDS011;34318;45.818;15.964;2023-06-14T08:38:10;5.88;;;5.40;;
43996;SDS011;34318;45.818;15.964;2023-06-14T08:40:38;17.13;;;15.52;;
43996;SDS011;34318;45.818;15.964;2023-06-14T08:43:06;14.50;;;12.93;;
43996;SDS011;34318;45.818;15.964;2023-06-14T08:45:34;11.20;;;9.63;;
43996;SDS011;34318;45.818;15.964;2023-06-14T08:48:01;12.68;;;8.02;;
43996;SDS011;34318;45.818;15.964;2023-06-14T08:50:29;8.05;;;7.28;;
43996;SDS011;34318;45.818;15.964;2023-06-14T08:52:58;7.47;;;6.68;;
43996;SDS011;34318;45.818;15.964;2023-06-14T08:55:30;7.30;;;6.65;;
43996;SDS011;34318;45.818;15.964;2023-06-14T08:58:03;6.18;;;5.68;;
43996;SDS011;34318;45.818;15.964;2023-06-14T09:00:31;6.55;;;5.65;;
43996;SDS011;34318;45.818;15.964;2023-06-14T09:03:00;6.32;;;5.00;;
43996;SDS011;34318;45.818;15.964;2023-06-14T09:05:27;5.30;;;4.80;;
43996;SDS011;34318;45.818;15.964;2023-06-14T09:07:55;4.60;;;4.20;;
43996;SDS011;34318;45.818;15.964;2023-06-14T09:10:25;5.22;;;4.75;;
43996;SDS011;34318;45.818;15.964;2023-06-14T09:12:53;4.40;;;4.00;;
43996;SDS011;34318;45.818;15.964;2023-06-14T09:15:20;7.82;;;4.25;;
43996;SDS011;34318;45.818;15.964;2023-06-14T09:17:48;7.35;;;4.63;;
43996;SDS011;34318;45.818;15.964;2023-06-14T09:20:15;6.07;;;4.15;;
43996;SDS011;34318;45.818;15.964;2023-06-14T09:22:46;5.60;;;4.28;;
43996;SDS011;34318;45.818;15.964;2023-06-14T09:25:13;6.72;;;4.57;;
43996;SDS011;34318;45.818;15.964;2023-06-14T09:28:06;13.50;;;11.95;;
43996;SDS011;34318;45.818;15.964;2023-06-14T09:30:33;12.18;;;10.98;;
43996;SDS011;34318;45.818;15.964;2023-06-14T09:33:00;12.93;;;11.63;;
43996;SDS011;34318;45.818;15.964;2023-06-14T09:35:27;11.07;;;9.95;;
43996;SDS011;34318;45.818;15.964;2023-06-14T09:37:57;9.15;;;8.18;;
43996;SDS011;34318;45.818;15.964;2023-06-14T09:40:24;7.75;;;7.00;;
43996;SDS011;34318;45.818;15.964;2023-06-14T09:42:52;9.02;;;6.68;;
43996;SDS011;34318;45.818;15.964;2023-06-14T09:45:20;6.15;;;5.60;;
43996;SDS011;34318;45.818;15.964;2023-06-14T09:47:49;8.15;;;5.50;;
43996;SDS011;34318;45.818;15.964;2023-06-14T09:50:32;8.77;;;5.20;;
43996;SDS011;34318;45.818;15.964;2023-06-14T09:53:05;6.30;;;5.05;;
43996;SDS011;34318;45.818;15.964;2023-06-14T09:55:34;5.55;;;4.53;;
43996;SDS011;34318;45.818;15.964;2023-06-14T09:58:03;5.50;;;4.60;;
43996;SDS011;34318;45.818;15.964;2023-06-14T10:00:33;4.90;;;4.07;;
43996;SDS011;34318;45.818;15.964;2023-06-14T10:03:03;5.05;;;4.65;;
43996;SDS011;34318;45.818;15.964;2023-06-14T10:05:34;14.68;;;13.27;;
43996;SDS011;34318;45.818;15.964;2023-06-14T10:08:08;41.60;;;37.78;;
43996;SDS011;34318;45.818;15.964;2023-06-14T10:10:35;27.30;;;24.83;;
43996;SDS011;34318;45.818;15.964;2023-06-14T10:13:06;21.95;;;19.85;;
43996;SDS011;34318;45.818;15.964;2023-06-14T10:18:07;21.40;;;19.33;;
43996;SDS011;34318;45.818;15.964;2023-06-14T10:23:15;29.50;;;21.92;;
43996;SDS011;34318;45.818;15.964;2023-06-14T10:25:43;54.20;;;28.88;;
43996;SDS011;34318;45.818;15.964;2023-06-14T10:28:17;57.38;;;29.48;;
43996;SDS011;34318;45.818;15.964;2023-06-14T10:41:39;53.45;;;26.42;;
43996;SDS011;34318;45.818;15.964;2023-06-14T10:44:10;34.97;;;20.10;;
43996;SDS011;34318;45.818;15.964;2023-06-14T10:46:38;36.03;;;19.92;;
43996;SDS011;34318;45.818;15.964;2023-06-14T10:49:07;28.92;;;20.48;;
43996;SDS011;34318;45.818;15.964;2023-06-14T10:51:39;29.23;;;19.63;;
43996;SDS011;34318;45.818;15.964;2023-06-14T10:54:13;24.77;;;17.80;;
43996;SDS011;34318;45.818;15.964;2023-06-14T10:56:45;22.35;;;16.35;;
43996;SDS011;34318;45.818;15.964;2023-06-14T10:59:13;19.88;;;14.15;;
43996;SDS011;34318;45.818;15.964;2023-06-14T11:01:47;17.15;;;12.27;;
43996;SDS011;34318;45.818;15.964;2023-06-14T11:04:17;15.40;;;11.85;;
43996;SDS011;34318;45.818;15.964;2023-06-14T11:06:48;18.48;;;10.80;;
43996;SDS011;34318;45.818;15.964;2023-06-14T11:12:02;29.25;;;16.17;;
43996;SDS011;34318;45.818;15.964;2023-06-14T11:14:30;90.45;;;39.53;;
43996;SDS011;34318;45.818;15.964;2023-06-14T11:16:57;85.00;;;53.50;;
43996;SDS011;34318;45.818;15.964;2023-06-14T11:19:26;57.10;;;39.28;;
43996;SDS011;34318;45.818;15.964;2023-06-14T11:21:55;40.33;;;31.80;;
43996;SDS011;34318;45.818;15.964;2023-06-14T11:24:22;44.55;;;33.40;;
43996;SDS011;34318;45.818;15.964;2023-06-14T11:26:50;40.42;;;31.25;;
43996;SDS011;34318;45.818;15.964;2023-06-14T11:29:19;31.88;;;26.75;;
43996;SDS011;34318;45.818;15.964;2023-06-14T11:31:47;27.88;;;25.02;;
43996;SDS011;34318;45.818;15.964;2023-06-14T11:34:14;28.27;;;25.33;;
43996;SDS011;34318;45.818;15.964;2023-06-14T11:36:41;24.50;;;21.90;;
43996;SDS011;34318;45.818;15.964;2023-06-14T11:39:09;26.88;;;22.00;;
43996;SDS011;34318;45.818;15.964;2023-06-14T11:41:46;26.65;;;20.15;;
43996;SDS011;34318;45.818;15.964;2023-06-14T11:44:13;22.75;;;20.05;;
43996;SDS011;34318;45.818;15.964;2023-06-14T11:46:40;19.95;;;17.88;;
43996;SDS011;34318;45.818;15.964;2023-06-14T11:49:08;20.73;;;16.05;;
43996;SDS011;34318;45.818;15.964;2023-06-14T11:51:36;17.10;;;14.80;;
43996;SDS011;34318;45.818;15.964;2023-06-14T11:54:04;18.10;;;16.15;;
43996;SDS011;34318;45.818;15.964;2023-06-14T11:56:31;16.73;;;13.65;;
43996;SDS011;34318;45.818;15.964;2023-06-14T11:58:59;14.18;;;12.65;;
43996;SDS011;34318;45.818;15.964;2023-06-14T12:01:26;15.52;;;12.55;;
43996;SDS011;34318;45.818;15.964;2023-06-14T12:03:54;14.90;;;12.02;;
43996;SDS011;34318;45.818;15.964;2023-06-14T12:06:28;11.75;;;10.65;;
43996;SDS011;34318;45.818;15.964;2023-06-14T12:09:00;15.07;;;12.38;;
43996;SDS011;34318;45.818;15.964;2023-06-14T12:11:32;14.82;;;12.00;;
43996;SDS011;34318;45.818;15.964;2023-06-14T12:14:00;13.57;;;11.52;;
43996;SDS011;34318;45.818;15.964;2023-06-14T12:16:32;10.88;;;9.77;;
43996;SDS011;34318;45.818;15.964;2023-06-14T12:19:00;15.48;;;10.73;;
43996;SDS011;34318;45.818;15.964;2023-06-14T12:21:28;23.65;;;20.90;;
43996;SDS011;34318;45.818;15.964;2023-06-14T12:23:56;21.90;;;16.65;;
43996;SDS011;34318;45.818;15.964;2023-06-14T12:26:23;13.93;;;12.43;;
43996;SDS011;34318;45.818;15.964;2023-06-14T12:28:53;14.80;;;11.98;;
43996;SDS011;34318;45.818;15.964;2023-06-14T12:31:20;14.27;;;10.07;;
43996;SDS011;34318;45.818;15.964;2023-06-14T12:33:48;11.50;;;9.63;;
43996;SDS011;34318;45.818;15.964;2023-06-14T12:36:15;9.82;;;8.20;;
43996;SDS011;34318;45.818;15.964;2023-06-14T12:38:45;8.40;;;7.60;;
43996;SDS011;34318;45.818;15.964;2023-06-14T12:41:13;9.02;;;7.43;;
43996;SDS011;34318;45.818;15.964;2023-06-14T12:43:41;10.73;;;8.00;;
43996;SDS011;34318;45.818;15.964;2023-06-14T12:46:08;7.88;;;7.07;;
43996;SDS011;34318;45.818;15.964;2023-06-14T12:48:36;9.75;;;6.38;;
43996;SDS011;34318;45.818;15.964;2023-06-14T12:51:03;7.68;;;6.78;;
43996;SDS011;34318;45.818;15.964;2023-06-14T12:53:30;7.80;;;6.93;;
43996;SDS011;34318;45.818;15.964;2023-06-14T12:55:57;7.20;;;6.50;;
43996;SDS011;34318;45.818;15.964;2023-06-14T12:58:24;7.70;;;6.90;;
43996;SDS011;34318;45.818;15.964;2023-06-14T13:00:52;6.97;;;6.28;;
43996;SDS011;34318;45.818;15.964;2023-06-14T13:03:19;7.47;;;6.78;;
43996;SDS011;34318;45.818;15.964;2023-06-14T13:05:46;6.80;;;6.05;;
43996;SDS011;34318;45.818;15.964;2023-06-14T13:08:14;7.70;;;6.45;;
43996;SDS011;34318;45.818;15.964;2023-06-14T13:10:41;6.95;;;6.10;;
43996;SDS011;34318;45.818;15.964;2023-06-14T13:13:08;8.90;;;5.28;;
43996;SDS011;34318;45.818;15.964;2023-06-14T13:15:38;7.65;;;6.85;;
43996;SDS011;34318;45.818;15.964;2023-06-14T13:18:06;16.92;;;15.35;;
43996;SDS011;34318;45.818;15.964;2023-06-14T13:20:33;18.38;;;16.58;;
43996;SDS011;34318;45.818;15.964;2023-06-14T13:23:00;20.25;;;18.35;;
43996;SDS011;34318;45.818;15.964;2023-06-14T13:25:30;16.58;;;14.00;;
43996;SDS011;34318;45.818;15.964;2023-06-14T13:27:58;12.20;;;11.00;;
43996;SDS011;34318;45.818;15.964;2023-06-14T13:30:25;10.20;;;9.20;;
43996;SDS011;34318;45.818;15.964;2023-06-14T13:32:52;8.82;;;7.90;;
43996;SDS011;34318;45.818;15.964;2023-06-14T13:35:19;9.80;;;7.97;;
43996;SDS011;34318;45.818;15.964;2023-06-14T13:37:47;9.85;;;7.85;;
43996;SDS011;34318;45.818;15.964;2023-06-14T13:40:14;9.07;;;7.53;;
43996;SDS011;34318;45.818;15.964;2023-06-14T13:42:42;9.20;;;7.45;;
43996;SDS011;34318;45.818;15.964;2023-06-14T13:45:10;11.77;;;7.88;;
43996;SDS011;34318;45.818;15.964;2023-06-14T13:47:38;13.27;;;8.93;;
43996;SDS011;34318;45.818;15.964;2023-06-14T13:50:05;11.55;;;8.45;;
43996;SDS011;34318;45.818;15.964;2023-06-14T13:52:33;13.90;;;8.18;;
43996;SDS011;34318;45.818;15.964;2023-06-14T13:55:01;13.20;;;7.53;;
43996;SDS011;34318;45.818;15.964;2023-06-14T13:57:28;8.60;;;7.45;;
43996;SDS011;34318;45.818;15.964;2023-06-14T13:59:55;9.82;;;7.10;;
43996;SDS011;34318;45.818;15.964;2023-06-14T14:02:28;11.18;;;7.82;;
43996;SDS011;34318;45.818;15.964;2023-06-14T14:04:56;8.90;;;7.47;;
43996;SDS011;34318;45.818;15.964;2023-06-14T14:07:23;8.30;;;7.22;;
43996;SDS011;34318;45.818;15.964;2023-06-14T14:09:50;9.00;;;6.63;;
43996;SDS011;34318;45.818;15.964;2023-06-14T14:12:19;10.85;;;6.50;;
43996;SDS011;34318;45.818;15.964;2023-06-14T14:14:46;7.80;;;6.50;;
43996;SDS011;34318;45.818;15.964;2023-06-14T14:17:14;8.30;;;7.50;;
43996;SDS011;34318;45.818;15.964;2023-06-14T14:19:41;9.50;;;7.88;;
43996;SDS011;34318;45.818;15.964;2023-06-14T14:22:08;8.90;;;7.45;;
43996;SDS011;34318;45.818;15.964;2023-06-14T14:24:35;13.27;;;11.85;;
43996;SDS011;34318;45.818;15.964;2023-06-14T14:27:03;16.13;;;14.50;;
43996;SDS011;34318;45.818;15.964;2023-06-14T14:29:30;16.30;;;14.80;;
43996;SDS011;34318;45.818;15.964;2023-06-14T14:31:57;36.90;;;33.75;;
43996;SDS011;34318;45.818;15.964;2023-06-14T14:34:25;23.98;;;21.70;;
43996;SDS011;34318;45.818;15.964;2023-06-14T14:36:53;18.98;;;17.15;;
43996;SDS011;34318;45.818;15.964;2023-06-14T14:39:20;17.50;;;15.23;;
43996;SDS011;34318;45.818;15.964;2023-06-14T14:41:47;30.10;;;27.23;;
43996;SDS011;34318;45.818;15.964;2023-06-14T14:44:15;29.77;;;26.92;;
43996;SDS011;34318;45.818;15.964;2023-06-14T14:46:42;24.80;;;22.50;;
43996;SDS011;34318;45.818;15.964;2023-06-14T14:49:10;20.98;;;18.85;;
43996;SDS011;34318;45.818;15.964;2023-06-14T14:51:37;19.83;;;18.05;;
43996;SDS011;34318;45.818;15.964;2023-06-14T14:54:06;18.45;;;16.80;;
43996;SDS011;34318;45.818;15.964;2023-06-14T14:56:33;17.73;;;16.08;;